createdAt,value
2018-03-20T00:00:41.384Z,18.84
2018-03-20T00:01:41.193Z,18.72
2018-03-20T00:02:41.203Z,18.71
2018-03-20T00:03:41.234Z,18.84
2018-03-20T00:04:41.204Z,18.76
2018-03-20T00:05:41.221Z,18.71
2018-03-20T00:06:41.202Z,18.83
2018-03-20T00:07:41.213Z,18.69
2018-03-20T00:08:41.161Z,18.68
2018-03-20T00:09:41.216Z,18.84
2018-03-20T00:10:41.202Z,18.71
2018-03-20T00:11:41.184Z,18.68
2018-03-20T00:12:41.172Z,18.81
2018-03-20T00:13:41.175Z,18.71
2018-03-20T00:14:41.190Z,18.71
2018-03-20T00:15:41.202Z,18.83
2018-03-20T00:16:41.217Z,18.68
2018-03-20T00:17:41.199Z,18.65
2018-03-20T00:18:41.197Z,18.78
2018-03-20T00:19:41.213Z,18.69
2018-03-20T00:20:41.174Z,18.65
2018-03-20T00:21:41.254Z,18.79
2018-03-20T00:22:41.199Z,18.66
2018-03-20T00:23:41.235Z,18.65
2018-03-20T00:24:41.202Z,18.8
2018-03-20T00:25:41.212Z,18.66
2018-03-20T00:26:41.257Z,18.64
2018-03-20T00:27:41.191Z,18.77
2018-03-20T00:28:41.203Z,18.64
2018-03-20T00:29:41.253Z,18.6
2018-03-20T00:30:41.288Z,18.75
2018-03-20T00:31:41.225Z,18.61
2018-03-20T00:32:41.206Z,18.6
2018-03-20T00:33:41.186Z,18.74
2018-03-20T00:34:41.194Z,18.64
2018-03-20T00:35:41.208Z,18.63
2018-03-20T00:36:41.184Z,18.74
2018-03-20T00:37:41.179Z,18.63
2018-03-20T00:38:41.168Z,18.63
2018-03-20T00:39:41.207Z,18.72
2018-03-20T00:40:41.186Z,18.61
2018-03-20T00:41:41.215Z,18.58
2018-03-20T00:42:41.200Z,18.71
2018-03-20T00:43:41.198Z,18.58
2018-03-20T00:44:41.181Z,18.58
2018-03-20T00:45:41.205Z,18.7
2018-03-20T00:46:41.191Z,18.6
2018-03-20T00:47:41.189Z,18.56
2018-03-20T00:48:41.213Z,18.7
2018-03-20T00:49:41.176Z,18.57
2018-03-20T00:50:41.231Z,18.57
2018-03-20T00:51:41.217Z,18.69
2018-03-20T00:52:41.186Z,18.58
2018-03-20T00:53:41.186Z,18.58
2018-03-20T00:54:41.196Z,18.69
2018-03-20T00:55:41.214Z,18.55
2018-03-20T00:56:41.179Z,18.55
2018-03-20T00:57:41.212Z,18.67
2018-03-20T00:58:41.173Z,18.54
2018-03-20T00:59:41.187Z,18.51
2018-03-20T01:00:41.189Z,18.66
2018-03-20T01:01:41.267Z,18.55
2018-03-20T01:02:41.191Z,18.5
2018-03-20T01:03:41.176Z,18.66
2018-03-20T01:04:41.238Z,18.54
2018-03-20T01:05:41.171Z,18.51
2018-03-20T01:06:41.239Z,18.66
2018-03-20T01:07:41.198Z,18.54
2018-03-20T01:08:41.167Z,18.49
2018-03-20T01:09:41.184Z,18.64
2018-03-20T01:10:41.183Z,18.51
2018-03-20T01:11:41.197Z,18.49
2018-03-20T01:12:41.166Z,18.63
2018-03-20T01:13:41.172Z,18.49
2018-03-20T01:14:41.163Z,18.48
2018-03-20T01:15:41.166Z,18.61
2018-03-20T01:16:41.264Z,18.48
2018-03-20T01:17:41.167Z,18.43
2018-03-20T01:18:41.156Z,18.59
2018-03-20T01:19:41.170Z,18.5
2018-03-20T01:20:41.172Z,18.48
2018-03-20T01:21:41.194Z,18.6
2018-03-20T01:22:41.147Z,18.48
2018-03-20T01:23:41.164Z,18.44
2018-03-20T01:24:41.163Z,18.57
2018-03-20T01:25:41.183Z,18.46
2018-03-20T01:26:41.170Z,18.44
2018-03-20T01:27:41.185Z,18.57
2018-03-20T01:28:41.166Z,18.45
2018-03-20T01:29:41.223Z,18.43
2018-03-20T01:30:41.180Z,18.56
2018-03-20T01:31:41.176Z,18.45
2018-03-20T01:32:41.179Z,18.39
2018-03-20T01:33:41.183Z,18.54
2018-03-20T01:34:41.173Z,18.43
2018-03-20T01:35:41.182Z,18.41
2018-03-20T01:36:41.178Z,18.53
2018-03-20T01:37:41.199Z,18.44
2018-03-20T01:38:41.189Z,18.39
2018-03-20T01:39:41.275Z,18.54
2018-03-20T01:40:41.297Z,18.41
2018-03-20T01:41:41.166Z,18.4
2018-03-20T01:42:41.240Z,18.51
2018-03-20T01:43:41.170Z,18.39
2018-03-20T01:44:41.168Z,18.41
2018-03-20T01:45:41.198Z,18.52
2018-03-20T01:46:41.175Z,18.37
2018-03-20T01:47:41.233Z,18.38
2018-03-20T01:48:41.168Z,18.5
2018-03-20T01:49:41.183Z,18.4
2018-03-20T01:50:41.170Z,18.37
2018-03-20T01:51:41.182Z,18.51
2018-03-20T01:52:41.181Z,18.41
2018-03-20T01:53:41.146Z,18.35
2018-03-20T01:54:41.193Z,18.49
2018-03-20T01:55:41.161Z,18.36
2018-03-20T01:56:41.155Z,18.35
2018-03-20T01:57:41.150Z,18.48
2018-03-20T01:58:41.161Z,18.35
2018-03-20T01:59:41.154Z,18.34
2018-03-20T02:00:41.161Z,18.47
2018-03-20T02:01:41.170Z,18.33
2018-03-20T02:02:41.156Z,18.3
2018-03-20T02:03:41.150Z,18.44
2018-03-20T02:04:41.152Z,18.33
2018-03-20T02:05:41.137Z,18.31
2018-03-20T02:06:41.155Z,18.45
2018-03-20T02:07:41.161Z,18.35
2018-03-20T02:08:41.166Z,18.31
2018-03-20T02:09:41.203Z,18.44
2018-03-20T02:10:41.234Z,18.35
2018-03-20T02:11:41.179Z,18.3
2018-03-20T02:12:41.167Z,18.44
2018-03-20T02:13:41.154Z,18.33
2018-03-20T02:14:41.161Z,18.32
2018-03-20T02:15:41.155Z,18.45
2018-03-20T02:16:41.151Z,18.32
2018-03-20T02:17:41.139Z,18.29
2018-03-20T02:18:41.156Z,18.43
2018-03-20T02:19:41.173Z,18.31
2018-03-20T02:20:41.226Z,18.29
2018-03-20T02:21:41.164Z,18.42
2018-03-20T02:22:41.161Z,18.3
2018-03-20T02:23:41.127Z,18.28
2018-03-20T02:24:41.136Z,18.41
2018-03-20T02:25:41.164Z,18.28
2018-03-20T02:26:41.146Z,18.27
2018-03-20T02:27:41.158Z,18.4
2018-03-20T02:28:41.157Z,18.27
2018-03-20T02:29:41.142Z,18.27
2018-03-20T02:30:41.186Z,18.41
2018-03-20T02:31:41.194Z,18.28
2018-03-20T02:32:41.142Z,18.24
2018-03-20T02:33:41.005Z,18.4
2018-03-20T02:34:41.119Z,18.25
2018-03-20T02:35:41.145Z,18.24
2018-03-20T02:36:41.233Z,18.37
2018-03-20T02:37:41.130Z,18.27
2018-03-20T02:38:41.194Z,18.24
2018-03-20T02:39:41.141Z,18.41
2018-03-20T02:40:41.163Z,18.26
2018-03-20T02:41:41.192Z,18.23
2018-03-20T02:42:41.134Z,18.38
2018-03-20T02:43:41.133Z,18.26
2018-03-20T02:44:41.142Z,18.26
2018-03-20T02:45:41.129Z,18.38
2018-03-20T02:46:41.182Z,18.25
2018-03-20T02:47:41.134Z,18.23
2018-03-20T02:48:41.165Z,18.34
2018-03-20T02:49:41.158Z,18.23
2018-03-20T02:50:41.159Z,18.21
2018-03-20T02:51:41.157Z,18.35
2018-03-20T02:52:41.166Z,18.23
2018-03-20T02:53:41.172Z,18.21
2018-03-20T02:54:41.149Z,18.33
2018-03-20T02:55:41.157Z,18.2
2018-03-20T02:56:41.150Z,18.2
2018-03-20T02:57:41.151Z,18.33
2018-03-20T02:58:41.179Z,18.21
2018-03-20T02:59:41.135Z,18.17
2018-03-20T03:00:41.189Z,18.31
2018-03-20T03:01:41.152Z,18.19
2018-03-20T03:02:41.178Z,18.2
2018-03-20T03:03:41.124Z,18.3
2018-03-20T03:04:41.134Z,18.16
2018-03-20T03:05:41.120Z,18.17
2018-03-20T03:06:41.164Z,18.3
2018-03-20T03:07:41.163Z,18.18
2018-03-20T03:08:41.147Z,18.14
2018-03-20T03:09:41.139Z,18.29
2018-03-20T03:10:41.141Z,18.17
2018-03-20T03:11:41.144Z,18.17
2018-03-20T03:12:41.142Z,18.31
2018-03-20T03:13:41.144Z,18.2
2018-03-20T03:14:41.126Z,18.16
2018-03-20T03:15:41.147Z,18.31
2018-03-20T03:16:41.133Z,18.2
2018-03-20T03:17:41.242Z,18.13
2018-03-20T03:18:41.140Z,18.27
2018-03-20T03:19:41.189Z,18.17
2018-03-20T03:20:41.119Z,18.15
2018-03-20T03:21:41.130Z,18.26
2018-03-20T03:22:41.217Z,18.17
2018-03-20T03:23:41.121Z,18.16
2018-03-20T03:24:41.136Z,18.27
2018-03-20T03:25:41.139Z,18.11
2018-03-20T03:26:41.132Z,18.12
2018-03-20T03:27:41.120Z,18.25
2018-03-20T03:28:41.149Z,18.13
2018-03-20T03:29:41.106Z,18.15
2018-03-20T03:30:41.138Z,18.27
2018-03-20T03:31:41.155Z,18.15
2018-03-20T03:32:41.133Z,18.1
2018-03-20T03:33:41.103Z,18.24
2018-03-20T03:34:41.173Z,18.14
2018-03-20T03:35:41.130Z,18.11
2018-03-20T03:36:41.124Z,18.24
2018-03-20T03:37:41.138Z,18.13
2018-03-20T03:38:41.113Z,18.08
2018-03-20T03:39:41.117Z,18.22
2018-03-20T03:40:41.237Z,18.1
2018-03-20T03:41:41.242Z,18.09
2018-03-20T03:42:41.128Z,18.23
2018-03-20T03:43:41.145Z,18.1
2018-03-20T03:44:41.128Z,18.07
2018-03-20T03:45:41.140Z,18.19
2018-03-20T03:46:41.145Z,18.08
2018-03-20T03:47:41.116Z,18.06
2018-03-20T03:48:41.153Z,18.2
2018-03-20T03:49:41.131Z,18.08
2018-03-20T03:50:41.110Z,18.07
2018-03-20T03:51:41.131Z,18.18
2018-03-20T03:52:41.103Z,18.06
2018-03-20T03:53:41.136Z,18.07
2018-03-20T03:54:41.112Z,18.21
2018-03-20T03:55:41.123Z,18.08
2018-03-20T03:56:41.115Z,18.04
2018-03-20T03:57:41.098Z,18.18
2018-03-20T03:58:41.169Z,18.04
2018-03-20T03:59:41.105Z,18.05
2018-03-20T04:00:41.113Z,18.17
2018-03-20T04:01:41.137Z,18.06
2018-03-20T04:02:41.084Z,18.02
2018-03-20T04:03:41.143Z,18.14
2018-03-20T04:04:41.128Z,18.03
2018-03-20T04:05:41.094Z,18.04
2018-03-20T04:06:41.107Z,18.16
2018-03-20T04:07:41.114Z,18.05
2018-03-20T04:08:41.106Z,18.06
2018-03-20T04:09:41.137Z,18.18
2018-03-20T04:10:41.109Z,18.03
2018-03-20T04:11:41.121Z,18.02
2018-03-20T04:12:41.075Z,18.15
2018-03-20T04:13:41.132Z,18.03
2018-03-20T04:14:41.110Z,18.02
2018-03-20T04:15:41.136Z,18.14
2018-03-20T04:16:41.126Z,18.02
2018-03-20T04:17:41.094Z,17.98
2018-03-20T04:18:41.147Z,18.12
2018-03-20T04:19:41.111Z,17.99
2018-03-20T04:20:41.124Z,17.99
2018-03-20T04:21:41.121Z,18.15
2018-03-20T04:22:41.120Z,18.04
2018-03-20T04:23:41.387Z,18
2018-03-20T04:24:41.092Z,18.12
2018-03-20T04:25:41.093Z,18.02
2018-03-20T04:26:41.113Z,18.02
2018-03-20T04:27:41.169Z,18.12
2018-03-20T04:28:41.143Z,17.98
2018-03-20T04:29:41.150Z,17.95
2018-03-20T04:30:41.119Z,18.1
2018-03-20T04:31:41.114Z,17.98
2018-03-20T04:32:41.110Z,17.96
2018-03-20T04:33:41.116Z,18.11
2018-03-20T04:34:41.123Z,17.98
2018-03-20T04:35:41.095Z,17.98
2018-03-20T04:36:41.109Z,18.09
2018-03-20T04:37:41.083Z,17.97
2018-03-20T04:38:41.158Z,17.95
2018-03-20T04:39:41.113Z,18.07
2018-03-20T04:40:41.165Z,17.95
2018-03-20T04:41:41.098Z,17.92
2018-03-20T04:42:41.108Z,18.04
2018-03-20T04:43:41.225Z,17.95
2018-03-20T04:44:41.096Z,17.93
2018-03-20T04:45:41.106Z,18.06
2018-03-20T04:46:41.109Z,17.94
2018-03-20T04:47:41.150Z,17.94
2018-03-20T04:48:41.129Z,18.05
2018-03-20T04:49:41.110Z,17.95
2018-03-20T04:50:41.096Z,17.92
2018-03-20T04:51:41.097Z,18.03
2018-03-20T04:52:41.102Z,17.96
2018-03-20T04:53:41.090Z,17.93
2018-03-20T04:54:41.090Z,18.05
2018-03-20T04:55:41.119Z,17.93
2018-03-20T04:56:41.114Z,17.92
2018-03-20T04:57:41.066Z,18.06
2018-03-20T04:58:41.104Z,17.97
2018-03-20T04:59:41.087Z,17.95
2018-03-20T05:00:41.108Z,18.06
2018-03-20T05:01:41.078Z,17.95
2018-03-20T05:02:41.107Z,17.97
2018-03-20T05:03:41.111Z,18.08
2018-03-20T05:04:41.078Z,17.95
2018-03-20T05:05:41.088Z,17.96
2018-03-20T05:06:41.116Z,18.09
2018-03-20T05:07:41.118Z,18.01
2018-03-20T05:08:41.076Z,17.99
2018-03-20T05:09:41.118Z,18.12
2018-03-20T05:10:41.093Z,18.03
2018-03-20T05:11:41.109Z,18.03
2018-03-20T05:12:41.098Z,18.15
2018-03-20T05:13:41.111Z,18.06
2018-03-20T05:14:41.065Z,18.05
2018-03-20T05:15:41.085Z,18.18
2018-03-20T05:16:41.089Z,18.1
2018-03-20T05:17:41.106Z,18.1
2018-03-20T05:18:41.094Z,18.23
2018-03-20T05:19:41.131Z,18.16
2018-03-20T05:20:41.362Z,18.16
2018-03-20T05:21:41.092Z,18.24
2018-03-20T05:22:41.094Z,18.17
2018-03-20T05:23:41.076Z,18.19
2018-03-20T05:24:41.085Z,18.29
2018-03-20T05:25:41.099Z,18.22
2018-03-20T05:26:41.092Z,18.25
2018-03-20T05:27:41.095Z,18.33
2018-03-20T05:28:41.064Z,18.29
2018-03-20T05:29:41.075Z,18.3
2018-03-20T05:30:41.094Z,18.38
2018-03-20T05:31:41.117Z,18.35
2018-03-20T05:32:41.073Z,18.36
2018-03-20T05:33:41.097Z,18.45
2018-03-20T05:34:41.083Z,18.4
2018-03-20T05:35:41.059Z,18.41
2018-03-20T05:36:41.094Z,18.5
2018-03-20T05:37:41.090Z,18.45
2018-03-20T05:38:41.084Z,18.47
2018-03-20T05:39:41.093Z,18.56
2018-03-20T05:40:41.078Z,18.5
2018-03-20T05:41:41.182Z,18.52
2018-03-20T05:42:41.464Z,18.61
2018-03-20T05:43:41.107Z,18.56
2018-03-20T05:44:41.080Z,18.59
2018-03-20T05:45:41.083Z,18.67
2018-03-20T05:46:41.095Z,18.61
2018-03-20T05:47:41.116Z,18.64
2018-03-20T05:48:41.084Z,18.72
2018-03-20T05:49:41.082Z,18.66
2018-03-20T05:50:41.085Z,18.69
2018-03-20T05:51:41.067Z,18.77
2018-03-20T05:52:41.071Z,18.72
2018-03-20T05:53:41.136Z,18.72
2018-03-20T05:54:41.080Z,18.81
2018-03-20T05:55:41.078Z,18.76
2018-03-20T05:56:41.091Z,18.78
2018-03-20T05:57:41.131Z,18.85
2018-03-20T05:58:41.497Z,18.79
2018-03-20T05:59:41.099Z,18.82
2018-03-20T06:00:41.136Z,18.9
2018-03-20T06:01:41.149Z,18.83
2018-03-20T06:02:41.074Z,18.87
2018-03-20T06:03:41.118Z,18.94
2018-03-20T06:04:41.081Z,18.89
2018-03-20T06:05:41.065Z,18.91
2018-03-20T06:06:41.063Z,18.98
2018-03-20T06:07:41.061Z,18.92
2018-03-20T06:08:41.097Z,18.94
2018-03-20T06:09:41.080Z,19.03
2018-03-20T06:10:41.078Z,18.97
2018-03-20T06:11:41.080Z,18.98
2018-03-20T06:12:41.089Z,19.06
2018-03-20T06:13:41.102Z,19.01
2018-03-20T06:14:41.080Z,19.01
2018-03-20T06:15:41.066Z,19.1
2018-03-20T06:16:41.080Z,19.03
2018-03-20T06:17:41.098Z,19.04
2018-03-20T06:18:41.051Z,19.13
2018-03-20T06:19:41.098Z,19.08
2018-03-20T06:20:41.067Z,19.09
2018-03-20T06:21:41.125Z,19.16
2018-03-20T06:22:41.061Z,19.09
2018-03-20T06:23:41.091Z,19.11
2018-03-20T06:24:41.075Z,19.2
2018-03-20T06:25:41.068Z,19.14
2018-03-20T06:26:41.142Z,19.13
2018-03-20T06:27:41.068Z,19.22
2018-03-20T06:28:41.092Z,19.15
2018-03-20T06:29:41.055Z,19.16
2018-03-20T06:30:41.076Z,19.23
2018-03-20T06:31:41.078Z,19.17
2018-03-20T06:32:41.055Z,19.18
2018-03-20T06:33:41.105Z,19.26
2018-03-20T06:34:41.075Z,19.2
2018-03-20T06:35:41.114Z,19.21
2018-03-20T06:36:41.062Z,19.28
2018-03-20T06:37:41.077Z,19.22
2018-03-20T06:38:41.080Z,19.25
2018-03-20T06:39:41.082Z,19.3
2018-03-20T06:40:41.069Z,19.24
2018-03-20T06:41:41.076Z,19.25
2018-03-20T06:42:41.062Z,19.33
2018-03-20T06:43:41.103Z,19.26
2018-03-20T06:44:41.083Z,19.27
2018-03-20T06:45:41.074Z,19.34
2018-03-20T06:46:41.083Z,19.28
2018-03-20T06:47:41.085Z,19.28
2018-03-20T06:48:41.068Z,19.36
2018-03-20T06:49:41.062Z,19.29
2018-03-20T06:50:41.082Z,19.31
2018-03-20T06:51:41.078Z,19.39
2018-03-20T06:52:41.059Z,19.31
2018-03-20T06:53:41.074Z,19.31
2018-03-20T06:54:41.059Z,19.39
2018-03-20T06:55:41.065Z,19.33
2018-03-20T06:56:41.061Z,19.33
2018-03-20T06:57:41.062Z,19.43
2018-03-20T06:58:41.083Z,19.37
2018-03-20T06:59:41.036Z,19.37
2018-03-20T07:00:41.055Z,19.44
2018-03-20T07:01:41.065Z,19.36
2018-03-20T07:02:41.045Z,19.38
2018-03-20T07:03:41.081Z,19.46
2018-03-20T07:04:41.063Z,19.39
2018-03-20T07:05:41.039Z,19.39
2018-03-20T07:06:41.038Z,19.45
2018-03-20T07:07:41.057Z,19.41
2018-03-20T07:08:41.121Z,19.42
2018-03-20T07:09:41.069Z,19.48
2018-03-20T07:10:41.045Z,19.4
2018-03-20T07:11:41.055Z,19.4
2018-03-20T07:12:41.085Z,19.47
2018-03-20T07:13:41.099Z,19.41
2018-03-20T07:14:41.090Z,19.44
2018-03-20T07:15:41.054Z,19.52
2018-03-20T07:16:41.062Z,19.44
2018-03-20T07:17:41.049Z,19.45
2018-03-20T07:18:41.375Z,19.53
2018-03-20T07:19:41.071Z,19.46
2018-03-20T07:20:41.050Z,19.46
2018-03-20T07:21:41.048Z,19.54
2018-03-20T07:22:41.056Z,19.44
2018-03-20T07:23:41.109Z,19.47
2018-03-20T07:24:41.062Z,19.57
2018-03-20T07:25:41.052Z,19.5
2018-03-20T07:26:41.060Z,19.48
2018-03-20T07:27:41.055Z,19.58
2018-03-20T07:28:41.038Z,19.51
2018-03-20T07:29:41.064Z,19.5
2018-03-20T07:30:41.067Z,19.61
2018-03-20T07:31:41.064Z,19.51
2018-03-20T07:32:41.045Z,19.52
2018-03-20T07:33:41.064Z,19.62
2018-03-20T07:34:41.047Z,19.53
2018-03-20T07:35:41.077Z,19.55
2018-03-20T07:36:41.049Z,19.64
2018-03-20T07:37:41.064Z,19.56
2018-03-20T07:38:41.042Z,19.54
2018-03-20T07:39:41.051Z,19.63
2018-03-20T07:40:41.027Z,19.56
2018-03-20T07:41:41.039Z,19.56
2018-03-20T07:42:41.201Z,19.63
2018-03-20T07:43:41.142Z,19.56
2018-03-20T07:44:41.017Z,19.54
2018-03-20T07:45:41.048Z,19.63
2018-03-20T07:46:41.058Z,19.54
2018-03-20T07:47:41.057Z,19.53
2018-03-20T07:48:41.048Z,19.62
2018-03-20T07:49:41.047Z,19.54
2018-03-20T07:50:41.063Z,19.55
2018-03-20T07:51:41.051Z,19.62
2018-03-20T07:52:41.046Z,19.56
2018-03-20T07:53:41.054Z,19.55
2018-03-20T07:54:41.027Z,19.63
2018-03-20T07:55:41.108Z,19.57
2018-03-20T07:56:41.023Z,19.57
2018-03-20T07:57:41.093Z,19.65
2018-03-20T07:58:41.050Z,19.57
2018-03-20T07:59:41.013Z,19.58
2018-03-20T08:00:41.040Z,19.66
2018-03-20T08:01:41.453Z,19.58
2018-03-20T08:02:41.031Z,19.57
2018-03-20T08:03:41.018Z,19.66
2018-03-20T08:04:41.028Z,19.58
2018-03-20T08:05:41.072Z,19.58
2018-03-20T08:06:41.036Z,19.69
2018-03-20T08:07:41.030Z,19.61
2018-03-20T08:08:41.047Z,19.61
2018-03-20T08:09:41.040Z,19.69
2018-03-20T08:10:41.115Z,19.63
2018-03-20T08:11:41.040Z,19.63
2018-03-20T08:12:41.029Z,19.71
2018-03-20T08:13:41.268Z,19.63
2018-03-20T08:14:41.035Z,19.63
2018-03-20T08:15:41.080Z,19.72
2018-03-20T08:16:41.048Z,19.66
2018-03-20T08:17:41.009Z,19.66
2018-03-20T08:18:41.043Z,19.75
2018-03-20T08:19:41.040Z,19.67
2018-03-20T08:20:41.022Z,19.67
2018-03-20T08:21:41.030Z,19.75
2018-03-20T08:22:41.078Z,19.69
2018-03-20T08:23:41.002Z,19.67
2018-03-20T08:24:41.047Z,19.77
2018-03-20T08:25:41.029Z,19.7
2018-03-20T08:26:41.031Z,19.69
2018-03-20T08:27:41.029Z,19.78
2018-03-20T08:28:41.025Z,19.69
2018-03-20T08:29:41.063Z,19.7
2018-03-20T08:30:41.013Z,19.79
2018-03-20T08:31:41.031Z,19.71
2018-03-20T08:32:41.022Z,19.72
2018-03-20T08:33:41.025Z,19.8
2018-03-20T08:34:41.048Z,19.73
2018-03-20T08:35:41.020Z,19.74
2018-03-20T08:36:41.389Z,19.81
2018-03-20T08:37:41.037Z,19.75
2018-03-20T08:38:41.035Z,19.75
2018-03-20T08:39:41.046Z,19.82
2018-03-20T08:40:41.061Z,19.76
2018-03-20T08:41:40.998Z,19.76
2018-03-20T08:42:41.039Z,19.84
2018-03-20T08:43:41.028Z,19.77
2018-03-20T08:44:41.012Z,19.76
2018-03-20T08:45:41.023Z,19.86
2018-03-20T08:46:41.029Z,19.78
2018-03-20T08:47:40.994Z,19.76
2018-03-20T08:48:41.012Z,19.86
2018-03-20T08:49:41.036Z,19.78
2018-03-20T08:50:41.011Z,19.78
2018-03-20T08:51:41.001Z,19.87
2018-03-20T08:52:41.097Z,19.79
2018-03-20T08:53:41.002Z,19.79
2018-03-20T08:54:41.060Z,19.87
2018-03-20T08:55:41.043Z,19.8
2018-03-20T08:56:41.016Z,19.78
2018-03-20T08:57:41.005Z,19.88
2018-03-20T08:58:41.100Z,19.81
2018-03-20T08:59:41.149Z,19.8
2018-03-20T09:00:41.164Z,19.88
2018-03-20T09:01:41.018Z,19.81
2018-03-20T09:02:41.049Z,19.81
2018-03-20T09:03:41.081Z,19.89
2018-03-20T09:04:41.112Z,19.81
2018-03-20T09:05:40.990Z,19.82
2018-03-20T09:06:41.036Z,19.92
2018-03-20T09:07:41.022Z,19.83
2018-03-20T09:08:41.073Z,19.83
2018-03-20T09:09:41.084Z,19.91
2018-03-20T09:10:41.117Z,19.83
2018-03-20T09:11:41.024Z,19.84
2018-03-20T09:12:41.049Z,19.91
2018-03-20T09:13:41.026Z,19.84
2018-03-20T09:14:41.090Z,19.85
2018-03-20T09:15:41.089Z,19.94
2018-03-20T09:16:41.021Z,19.85
2018-03-20T09:17:40.990Z,19.86
2018-03-20T09:18:41.020Z,19.93
2018-03-20T09:19:41.005Z,19.86
2018-03-20T09:20:41.032Z,19.86
2018-03-20T09:21:41.216Z,19.94
2018-03-20T09:22:41.009Z,19.85
2018-03-20T09:23:41.022Z,19.88
2018-03-20T09:24:41.027Z,19.95
2018-03-20T09:25:41.012Z,19.87
2018-03-20T09:26:41.024Z,19.88
2018-03-20T09:27:41.011Z,19.95
2018-03-20T09:28:41.040Z,19.89
2018-03-20T09:29:41.025Z,19.89
2018-03-20T09:30:41.037Z,19.97
2018-03-20T09:31:41.033Z,19.88
2018-03-20T09:32:41.014Z,19.88
2018-03-20T09:33:41.000Z,19.96
2018-03-20T09:34:40.997Z,19.9
2018-03-20T09:35:41.001Z,19.9
2018-03-20T09:36:41.038Z,19.98
2018-03-20T09:37:41.025Z,19.91
2018-03-20T09:38:41.013Z,19.9
2018-03-20T09:39:41.019Z,19.99
2018-03-20T09:40:41.005Z,19.91
2018-03-20T09:41:41.026Z,19.92
2018-03-20T09:42:41.014Z,19.99
2018-03-20T09:43:41.120Z,19.93
2018-03-20T09:44:41.123Z,19.91
2018-03-20T09:45:41.012Z,19.99
2018-03-20T09:46:41.015Z,19.92
2018-03-20T09:47:41.182Z,19.94
2018-03-20T09:48:41.000Z,20.01
2018-03-20T09:49:40.981Z,19.92
2018-03-20T09:50:41.023Z,19.93
2018-03-20T09:51:41.016Z,20.01
2018-03-20T09:52:41.000Z,19.93
2018-03-20T09:53:40.986Z,19.94
2018-03-20T09:54:40.992Z,20.02
2018-03-20T09:55:41.035Z,19.94
2018-03-20T09:56:41.050Z,19.96
2018-03-20T09:57:41.026Z,20.04
2018-03-20T09:58:41.012Z,19.95
2018-03-20T09:59:40.983Z,19.94
2018-03-20T10:00:41.012Z,20.04
2018-03-20T10:01:41.065Z,19.95
2018-03-20T10:02:40.995Z,19.97
2018-03-20T10:03:41.009Z,20.05
2018-03-20T10:04:41.000Z,19.95
2018-03-20T10:05:40.996Z,19.96
2018-03-20T10:06:41.143Z,20.05
2018-03-20T10:07:40.995Z,19.96
2018-03-20T10:08:40.991Z,19.99
2018-03-20T10:09:41.006Z,20.06
2018-03-20T10:10:40.997Z,19.97
2018-03-20T10:11:41.019Z,19.93
2018-03-20T10:12:41.004Z,20
2018-03-20T10:13:40.983Z,19.93
2018-03-20T10:14:41.002Z,19.94
2018-03-20T10:15:40.957Z,20.06
2018-03-20T10:16:40.981Z,19.99
2018-03-20T10:17:41.028Z,20
2018-03-20T10:18:40.992Z,20.09
2018-03-20T10:19:41.019Z,20.02
2018-03-20T10:20:41.007Z,20.02
2018-03-20T10:21:41.004Z,20.11
2018-03-20T10:22:40.998Z,20.03
2018-03-20T10:23:40.995Z,20.06
2018-03-20T10:24:40.992Z,20.12
2018-03-20T10:25:41.033Z,20.01
2018-03-20T10:26:40.972Z,20.01
2018-03-20T10:27:41.164Z,20.13
2018-03-20T10:28:40.979Z,20.04
2018-03-20T10:29:41.002Z,20.02
2018-03-20T10:30:41.006Z,20.12
2018-03-20T10:31:41.011Z,20.06
2018-03-20T10:32:41.015Z,20.05
2018-03-20T10:33:41.000Z,20.14
2018-03-20T10:34:41.000Z,20.05
2018-03-20T10:35:40.961Z,20.06
2018-03-20T10:36:41.016Z,20.15
2018-03-20T10:37:40.986Z,20.04
2018-03-20T10:38:40.989Z,20.07
2018-03-20T10:39:40.985Z,20.14
2018-03-20T10:40:40.992Z,20.03
2018-03-20T10:41:41.001Z,20.04
2018-03-20T10:42:40.984Z,20.14
2018-03-20T10:43:41.005Z,20.06
2018-03-20T10:44:40.976Z,20.07
2018-03-20T10:45:40.980Z,20.14
2018-03-20T10:46:40.998Z,20.06
2018-03-20T10:47:40.972Z,20.06
2018-03-20T10:48:41.023Z,20.14
2018-03-20T10:49:40.997Z,20.06
2018-03-20T10:50:40.977Z,20.05
2018-03-20T10:51:40.993Z,20.14
2018-03-20T10:52:41.003Z,20.04
2018-03-20T10:53:41.010Z,20.03
2018-03-20T10:54:40.984Z,20.12
2018-03-20T10:55:40.967Z,20.05
2018-03-20T10:56:40.973Z,20.04
2018-03-20T10:57:41.003Z,20.12
2018-03-20T10:58:40.979Z,20.05
2018-03-20T10:59:41.023Z,20.06
2018-03-20T11:00:40.977Z,20.15
2018-03-20T11:01:40.985Z,20.06
2018-03-20T11:02:40.989Z,20.07
2018-03-20T11:03:41.005Z,20.16
2018-03-20T11:04:41.014Z,20.06
2018-03-20T11:05:40.955Z,20.07
2018-03-20T11:06:40.980Z,20.15
2018-03-20T11:07:40.969Z,20.06
2018-03-20T11:08:41.002Z,20.06
2018-03-20T11:09:40.958Z,20.18
2018-03-20T11:10:40.992Z,20.08
2018-03-20T11:11:40.992Z,20.07
2018-03-20T11:12:40.978Z,20.18
2018-03-20T11:13:40.996Z,20.1
2018-03-20T11:14:41.021Z,20.09
2018-03-20T11:15:40.983Z,20.17
2018-03-20T11:16:40.981Z,20.06
2018-03-20T11:17:41.000Z,20.08
2018-03-20T11:18:40.986Z,20.17
2018-03-20T11:19:40.974Z,20.08
2018-03-20T11:20:40.962Z,20.1
2018-03-20T11:21:40.992Z,20.18
2018-03-20T11:22:40.949Z,20.1
2018-03-20T11:23:41.019Z,20.09
2018-03-20T11:24:41.376Z,20.19
2018-03-20T11:25:40.982Z,20.1
2018-03-20T11:26:40.962Z,20.11
2018-03-20T11:27:40.995Z,20.19
2018-03-20T11:28:41.016Z,20.1
2018-03-20T11:29:41.016Z,20.11
2018-03-20T11:30:40.984Z,20.2
2018-03-20T11:31:40.946Z,20.14
2018-03-20T11:32:40.949Z,20.12
2018-03-20T11:33:40.965Z,20.21
2018-03-20T11:34:40.989Z,20.14
2018-03-20T11:35:40.973Z,20.13
2018-03-20T11:36:40.978Z,20.24
2018-03-20T11:37:40.972Z,20.12
2018-03-20T11:38:40.965Z,20.12
2018-03-20T11:39:41.007Z,20.22
2018-03-20T11:40:40.992Z,20.12
2018-03-20T11:41:40.969Z,20.13
2018-03-20T11:42:40.983Z,20.22
2018-03-20T11:43:40.991Z,20.13
2018-03-20T11:44:41.061Z,20.12
2018-03-20T11:45:41.125Z,20.23
2018-03-20T11:46:40.965Z,20.14
2018-03-20T11:47:40.980Z,20.14
2018-03-20T11:48:41.003Z,20.24
2018-03-20T11:49:41.009Z,20.14
2018-03-20T11:50:40.967Z,20.12
2018-03-20T11:51:41.015Z,20.23
2018-03-20T11:52:40.974Z,20.15
2018-03-20T11:53:40.980Z,20.13
2018-03-20T11:54:40.981Z,20.24
2018-03-20T11:55:41.001Z,20.14
2018-03-20T11:56:40.987Z,20.13
2018-03-20T11:57:41.042Z,20.24
2018-03-20T11:58:40.993Z,20.16
2018-03-20T11:59:40.982Z,20.15
2018-03-20T12:00:40.980Z,20.24
2018-03-20T12:01:40.995Z,20.14
2018-03-20T12:02:40.966Z,20.14
2018-03-20T12:03:40.998Z,20.24
2018-03-20T12:04:40.992Z,20.16
2018-03-20T12:05:40.954Z,20.17
2018-03-20T12:06:40.986Z,20.24
2018-03-20T12:07:40.957Z,20.15
2018-03-20T12:08:40.973Z,20.17
2018-03-20T12:09:40.974Z,20.24
2018-03-20T12:10:40.977Z,20.16
2018-03-20T12:11:40.962Z,20.16
2018-03-20T12:12:40.971Z,20.24
2018-03-20T12:13:40.969Z,20.15
2018-03-20T12:14:40.977Z,20.06
2018-03-20T12:15:40.958Z,20.17
2018-03-20T12:16:40.951Z,20.12
2018-03-20T12:17:40.956Z,20.1
2018-03-20T12:18:40.973Z,20.16
2018-03-20T12:19:40.951Z,20.07
2018-03-20T12:20:40.967Z,20.08
2018-03-20T12:21:40.947Z,20.14
2018-03-20T12:22:40.954Z,20.04
2018-03-20T12:23:40.953Z,20.05
2018-03-20T12:24:40.948Z,20.13
2018-03-20T12:25:40.947Z,20.05
2018-03-20T12:26:40.944Z,20.06
2018-03-20T12:27:40.957Z,20.17
2018-03-20T12:28:40.959Z,20.08
2018-03-20T12:29:40.976Z,20.09
2018-03-20T12:30:40.949Z,20.19
2018-03-20T12:31:40.944Z,20.06
2018-03-20T12:32:40.927Z,20.1
2018-03-20T12:33:40.934Z,20.19
2018-03-20T12:34:40.968Z,20.12
2018-03-20T12:35:40.946Z,20.11
2018-03-20T12:36:40.939Z,20.23
2018-03-20T12:37:41.071Z,20.13
2018-03-20T12:38:40.974Z,20.12
2018-03-20T12:39:40.953Z,20.21
2018-03-20T12:40:40.950Z,20.12
2018-03-20T12:41:40.948Z,20.15
2018-03-20T12:42:40.970Z,20.24
2018-03-20T12:43:40.951Z,20.15
2018-03-20T12:44:41.011Z,20.16
2018-03-20T12:45:40.961Z,20.24
2018-03-20T12:46:41.614Z,20.15
2018-03-20T12:47:40.979Z,20.16
2018-03-20T12:48:40.958Z,20.24
2018-03-20T12:49:40.966Z,20.13
2018-03-20T12:50:40.971Z,20.15
2018-03-20T12:51:40.985Z,20.25
2018-03-20T12:52:40.948Z,20.17
2018-03-20T12:53:40.910Z,20.16
2018-03-20T12:54:40.959Z,20.24